createdAt,value
2019-04-03T00:01:14.535Z,64.03
2019-04-03T00:03:50.392Z,65.65
2019-04-03T00:06:26.237Z,68.10
2019-04-03T00:09:02.092Z,64.27
2019-04-03T00:11:39.942Z,57.03
2019-04-03T00:14:16.157Z,62.15
2019-04-03T00:16:52.012Z,57.93
2019-04-03T00:19:27.864Z,62.78
2019-04-03T00:22:03.820Z,57.33
2019-04-03T00:24:39.683Z,63.75
2019-04-03T00:27:15.425Z,62.70
2019-04-03T00:29:52.164Z,60.35
2019-04-03T00:32:28.479Z,62.58
2019-04-03T00:35:06.532Z,59.10
2019-04-03T00:37:42.323Z,55.03
2019-04-03T00:40:18.190Z,64.57
2019-04-03T00:42:54.553Z,55.80
2019-04-03T00:45:30.814Z,63.60
2019-04-03T00:48:06.558Z,61.77
2019-04-03T00:50:42.422Z,64.65
2019-04-03T00:53:18.279Z,62.30
2019-04-03T00:55:54.772Z,55.92
2019-04-03T00:58:42.268Z,59.73
2019-04-03T01:01:18.126Z,64.72
2019-04-03T01:03:58.109Z,65.92
2019-04-03T01:06:32.893Z,62.10
2019-04-03T01:09:08.963Z,64.55
2019-04-03T01:11:44.819Z,66.12
2019-04-03T01:14:20.942Z,64.10
2019-04-03T01:16:56.921Z,71.17
2019-04-03T01:19:36.146Z,64.55
2019-04-03T01:22:11.407Z,69.05
2019-04-03T01:24:47.251Z,64.05
2019-04-03T01:27:23.116Z,64.97
2019-04-03T01:29:59.677Z,61.80
2019-04-03T01:32:38.789Z,61.08
2019-04-03T01:35:15.709Z,59.50
2019-04-03T01:37:52.460Z,65.05
2019-04-03T01:40:28.327Z,58.20
2019-04-03T01:43:04.179Z,60.83
2019-04-03T01:45:40.021Z,61.65
2019-04-03T01:48:15.931Z,64.85
2019-04-03T01:50:51.846Z,57.23
2019-04-03T01:53:27.698Z,61.00
2019-04-03T01:56:05.164Z,64.60
2019-04-03T01:58:42.172Z,65.83
2019-04-03T02:01:18.014Z,67.32
2019-04-03T02:03:53.878Z,63.28
2019-04-03T02:06:29.722Z,58.85
2019-04-03T02:09:08.343Z,62.20
2019-04-03T02:11:44.323Z,66.00
2019-04-03T02:14:21.614Z,60.28
2019-04-03T02:16:57.618Z,54.63
2019-04-03T02:19:33.702Z,66.42
2019-04-03T02:22:09.569Z,64.87
2019-04-03T02:24:45.478Z,62.78
2019-04-03T02:27:21.470Z,62.40
2019-04-03T02:29:57.325Z,62.60
2019-04-03T02:32:33.747Z,62.08
2019-04-03T02:35:09.553Z,61.20
2019-04-03T02:37:48.386Z,62.13
2019-04-03T02:40:22.902Z,65.77
2019-04-03T02:42:58.749Z,68.60
2019-04-03T02:45:35.622Z,69.62
2019-04-03T02:48:11.665Z,73.17
2019-04-03T02:50:48.466Z,67.67
2019-04-03T02:53:24.412Z,64.10
2019-04-03T02:56:00.293Z,66.90
2019-04-03T02:58:36.118Z,68.02
2019-04-03T03:01:13.013Z,59.88
2019-04-03T03:03:49.988Z,59.05
2019-04-03T03:06:26.140Z,60.80
2019-04-03T03:09:02.023Z,63.68
2019-04-03T03:11:39.425Z,62.00
2019-04-03T03:14:15.962Z,67.00
2019-04-03T03:16:52.469Z,70.28
2019-04-03T03:19:31.855Z,65.70
2019-04-03T03:22:06.965Z,67.17
2019-04-03T03:24:44.004Z,63.55
2019-04-03T03:27:20.201Z,65.25
2019-04-03T03:29:58.574Z,64.20
2019-04-03T03:32:36.246Z,60.58
2019-04-03T03:35:16.759Z,67.03
2019-04-03T03:37:50.767Z,60.48
2019-04-03T03:40:26.544Z,89.20
2019-04-03T03:43:05.820Z,62.27
2019-04-03T03:45:42.148Z,64.50
2019-04-03T03:48:19.023Z,76.75
2019-04-03T03:50:57.281Z,67.15
2019-04-03T03:53:33.745Z,69.62
2019-04-03T03:56:09.694Z,66.55
2019-04-03T03:58:46.547Z,60.88
2019-04-03T04:01:22.707Z,62.65
2019-04-03T04:03:58.453Z,63.17
2019-04-03T04:06:35.895Z,60.15
2019-04-03T04:09:15.662Z,66.12
2019-04-03T04:11:49.756Z,66.25
2019-04-03T04:14:26.165Z,67.10
2019-04-03T04:17:02.022Z,66.55
2019-04-03T04:19:38.213Z,65.57
2019-04-03T04:22:16.778Z,67.97
2019-04-03T04:24:51.761Z,82.95
2019-04-03T04:27:27.626Z,94.22
2019-04-03T04:30:03.443Z,91.78
2019-04-03T04:32:39.334Z,123.15
2019-04-03T04:35:15.179Z,97.25
2019-04-03T04:37:51.353Z,87.82
2019-04-03T04:40:27.307Z,80.80
2019-04-03T04:43:04.176Z,141.37
2019-04-03T04:45:42.613Z,136.97
2019-04-03T04:48:20.815Z,100.97
2019-04-03T04:50:56.184Z,94.92
2019-04-03T04:53:32.104Z,90.25
2019-04-03T04:56:07.950Z,87.12
2019-04-03T04:58:43.985Z,79.80
2019-04-03T05:01:19.912Z,87.30
2019-04-03T05:03:55.837Z,94.42
2019-04-03T05:06:31.883Z,86.87
2019-04-03T05:09:07.832Z,92.02
2019-04-03T05:11:43.708Z,101.47
2019-04-03T05:14:19.544Z,336.60
2019-04-03T05:16:55.888Z,441.23
2019-04-03T05:19:32.485Z,412.98
2019-04-03T05:22:09.986Z,266.05
2019-04-03T05:24:49.557Z,75.97
2019-04-03T05:27:29.082Z,64.77
2019-04-03T05:30:09.544Z,59.58
2019-04-03T05:32:45.982Z,61.85
2019-04-03T05:35:21.845Z,59.00
2019-04-03T05:37:57.864Z,68.28
2019-04-03T05:40:33.661Z,55.12
2019-04-03T05:43:13.160Z,63.58
2019-04-03T05:45:52.774Z,69.12
2019-04-03T05:48:32.853Z,66.92
2019-04-03T05:51:10.387Z,70.08
2019-04-03T05:53:49.994Z,69.82
2019-04-03T05:56:30.212Z,60.63
2019-04-03T05:59:09.784Z,61.85
2019-04-03T06:01:47.659Z,69.17
2019-04-03T06:04:30.409Z,67.22
2019-04-03T06:07:08.548Z,69.62
2019-04-03T06:09:44.335Z,53.48
2019-04-03T06:12:20.146Z,45.45
2019-04-03T06:18:34.738Z,48.38
2019-04-03T06:21:10.595Z,50.00
2019-04-03T06:23:46.444Z,43.25
2019-04-03T06:26:35.755Z,52.50
2019-04-03T06:29:13.000Z,50.15
2019-04-03T06:31:48.861Z,49.65
2019-04-03T06:34:24.749Z,55.25
2019-04-03T06:37:00.578Z,50.03
2019-04-03T06:39:36.755Z,48.87
2019-04-03T06:42:13.277Z,47.88
2019-04-03T06:44:52.777Z,44.60
2019-04-03T06:47:27.449Z,48.70
2019-04-03T06:50:03.314Z,43.58
2019-04-03T06:52:39.169Z,41.60
2019-04-03T06:55:15.016Z,43.58
2019-04-03T06:57:50.905Z,40.70
2019-04-03T07:00:26.823Z,37.75
2019-04-03T07:03:03.836Z,47.48
2019-04-03T07:05:41.698Z,40.20
2019-04-03T07:08:28.978Z,47.15
2019-04-03T07:10:55.559Z,43.90
2019-04-03T07:13:32.584Z,41.65
2019-04-03T07:16:08.503Z,45.48
2019-04-03T07:18:44.452Z,42.90
2019-04-03T07:21:20.711Z,38.08
2019-04-03T07:24:00.399Z,47.35
2019-04-03T07:26:36.301Z,42.40
2019-04-03T07:29:14.049Z,45.03
2019-04-03T07:31:49.769Z,40.83
2019-04-03T07:34:25.621Z,37.25
2019-04-03T07:37:01.489Z,37.25
2019-04-03T07:39:37.340Z,38.00
2019-04-03T07:42:13.181Z,37.10
2019-04-03T07:44:49.038Z,40.88
2019-04-03T07:47:24.890Z,33.98
2019-04-03T07:50:01.154Z,36.93
2019-04-03T07:52:37.214Z,35.35
2019-04-03T07:55:13.294Z,32.55
2019-04-03T07:57:49.248Z,31.93
2019-04-03T08:00:25.286Z,36.28
2019-04-03T08:03:01.365Z,33.60
2019-04-03T08:05:38.222Z,33.33
2019-04-03T08:08:14.089Z,32.25
2019-04-03T08:10:49.945Z,36.33
2019-04-03T08:13:25.785Z,33.10
2019-04-03T08:16:01.737Z,32.95
2019-04-03T08:18:37.696Z,31.07
2019-04-03T08:21:13.696Z,36.03
2019-04-03T08:23:49.518Z,34.40
2019-04-03T08:26:27.273Z,33.98
2019-04-03T08:29:03.696Z,31.70
2019-04-03T08:31:42.742Z,34.45
2019-04-03T08:34:18.695Z,32.65
2019-04-03T08:36:54.825Z,37.98
2019-04-03T08:39:30.772Z,35.80
2019-04-03T08:42:07.036Z,36.15
2019-04-03T08:44:43.182Z,43.68
2019-04-03T08:47:19.057Z,33.78
2019-04-03T08:49:57.206Z,34.67
2019-04-03T08:52:32.402Z,31.25
2019-04-03T08:55:09.270Z,28.92
2019-04-03T08:57:46.479Z,50.92
2019-04-03T09:00:23.252Z,30.10
2019-04-03T09:02:59.103Z,37.05
2019-04-03T09:05:35.245Z,27.50
2019-04-03T09:08:11.212Z,30.32
2019-04-03T09:10:47.066Z,31.17
2019-04-03T09:13:24.099Z,30.25
2019-04-03T09:16:00.398Z,31.02
2019-04-03T09:18:38.329Z,32.83
2019-04-03T09:21:15.094Z,35.55
2019-04-03T09:23:51.571Z,33.75
2019-04-03T09:26:27.687Z,33.80
2019-04-03T09:29:04.496Z,30.82
2019-04-03T09:31:40.862Z,36.05
2019-04-03T09:34:16.839Z,27.05
2019-04-03T09:36:52.672Z,33.20
2019-04-03T09:39:28.485Z,35.70
2019-04-03T09:42:04.381Z,30.45
2019-04-03T09:44:40.231Z,32.28
2019-04-03T09:47:16.098Z,26.40
2019-04-03T09:49:52.146Z,26.77
2019-04-03T09:52:38.358Z,24.23
2019-04-03T09:55:06.421Z,29.92
2019-04-03T09:57:42.379Z,28.52
2019-04-03T10:00:18.330Z,27.27
2019-04-03T10:02:54.325Z,26.95
2019-04-03T10:05:30.573Z,33.48
2019-04-03T10:08:08.347Z,25.60
2019-04-03T10:10:44.976Z,24.67
2019-04-03T10:13:24.789Z,28.47
2019-04-03T10:15:59.341Z,26.70
2019-04-03T10:18:35.244Z,28.10
2019-04-03T10:21:11.316Z,26.85
2019-04-03T10:23:47.161Z,27.32
2019-04-03T10:26:23.196Z,27.58
2019-04-03T10:28:59.217Z,30.12
2019-04-03T10:31:35.344Z,31.42
2019-04-03T10:34:13.520Z,24.80
2019-04-03T10:36:48.683Z,27.02
2019-04-03T10:39:24.533Z,28.40
2019-04-03T10:42:01.204Z,27.42
2019-04-03T10:44:37.784Z,31.75
2019-04-03T10:47:13.630Z,27.40
2019-04-03T10:49:49.905Z,27.13
2019-04-03T10:52:25.868Z,26.75
2019-04-03T10:55:01.808Z,28.17
2019-04-03T10:57:37.673Z,30.72
2019-04-03T11:00:15.063Z,34.85
2019-04-03T11:02:50.906Z,37.25
2019-04-03T11:05:26.764Z,29.95
2019-04-03T11:08:02.732Z,26.10
2019-04-03T11:10:38.657Z,28.38
2019-04-03T11:13:14.640Z,27.73
2019-04-03T11:15:50.483Z,29.92
2019-04-03T11:18:26.337Z,26.85
2019-04-03T11:21:02.219Z,24.92
2019-04-03T11:23:43.726Z,30.65
2019-04-03T11:26:17.767Z,28.12
2019-04-03T11:28:53.885Z,28.25
2019-04-03T11:31:33.526Z,30.17
2019-04-03T11:34:07.605Z,27.60
2019-04-03T11:36:43.406Z,27.20
2019-04-03T11:39:19.219Z,29.10
2019-04-03T11:41:56.249Z,30.43
2019-04-03T11:44:32.612Z,29.92
2019-04-03T11:47:08.726Z,29.37
2019-04-03T11:49:45.695Z,30.85
2019-04-03T11:52:21.790Z,26.68
2019-04-03T11:54:58.155Z,33.88
2019-04-03T11:57:34.181Z,27.22
2019-04-03T12:00:17.102Z,30.60
2019-04-03T12:02:53.287Z,27.02
2019-04-03T12:05:29.262Z,27.37
2019-04-03T12:08:05.385Z,24.70
2019-04-03T12:11:00.503Z,29.18
2019-04-03T12:14:18.770Z,25.05
2019-04-03T12:21:09.563Z,26.17
2019-04-03T12:23:58.522Z,27.20
2019-04-03T12:26:43.231Z,29.50
2019-04-03T12:29:21.477Z,28.23
2019-04-03T12:31:58.034Z,32.10
2019-04-03T12:34:36.737Z,28.47
2019-04-03T12:37:11.625Z,28.30
2019-04-03T12:39:47.495Z,27.73
2019-04-03T12:42:23.418Z,27.65
2019-04-03T12:44:59.815Z,28.70
2019-04-03T12:47:36.147Z,28.50
2019-04-03T12:50:13.430Z,25.03
2019-04-03T12:52:49.579Z,26.10
2019-04-03T12:55:26.320Z,21.48
2019-04-03T12:58:05.015Z,20.60
2019-04-03T13:00:41.379Z,20.15
2019-04-03T13:03:17.236Z,21.30
2019-04-03T13:05:53.096Z,26.60
2019-04-03T13:08:28.931Z,19.87
2019-04-03T13:11:05.291Z,25.48
2019-04-03T13:13:41.575Z,21.73
2019-04-03T13:16:17.413Z,25.25
2019-04-03T13:18:53.279Z,23.30
2019-04-03T13:21:40.337Z,28.70
2019-04-03T13:24:17.669Z,21.60
2019-04-03T13:26:53.745Z,19.62
2019-04-03T13:29:29.727Z,21.10
2019-04-03T13:32:07.421Z,21.30
2019-04-03T13:34:43.351Z,18.23
2019-04-03T13:37:23.272Z,18.35
2019-04-03T13:40:00.319Z,21.48
2019-04-03T13:42:35.934Z,17.27
2019-04-03T13:45:12.466Z,21.48
2019-04-03T13:47:48.259Z,17.32
2019-04-03T13:50:24.147Z,23.47
2019-04-03T13:53:00.414Z,18.92
2019-04-03T13:55:39.345Z,19.23
2019-04-03T13:58:14.534Z,19.12
2019-04-03T14:00:59.505Z,20.65
2019-04-03T14:03:28.104Z,18.48
2019-04-03T14:06:04.845Z,19.15
2019-04-03T14:08:41.232Z,20.25
2019-04-03T14:11:17.356Z,17.45
2019-04-03T14:13:53.354Z,20.45
2019-04-03T14:16:29.148Z,20.68
2019-04-03T14:19:05.055Z,17.52
2019-04-03T14:21:40.914Z,20.68
2019-04-03T14:24:16.955Z,18.62
2019-04-03T14:26:53.846Z,19.77
2019-04-03T14:29:30.205Z,19.70
2019-04-03T14:32:07.193Z,23.90
2019-04-03T14:34:43.135Z,18.73
2019-04-03T14:37:24.438Z,21.30
2019-04-03T14:39:56.717Z,19.52
2019-04-03T14:42:32.867Z,18.80
2019-04-03T14:45:13.434Z,20.60
2019-04-03T14:47:47.833Z,18.92
2019-04-03T14:50:23.895Z,18.90
2019-04-03T14:52:59.760Z,18.00
2019-04-03T14:55:46.276Z,18.62
2019-04-03T14:58:14.131Z,17.52
2019-04-03T15:00:50.735Z,19.65
2019-04-03T15:03:27.949Z,26.05
2019-04-03T15:06:04.665Z,22.25
2019-04-03T15:08:40.665Z,27.62
2019-04-03T15:11:16.806Z,22.75
2019-04-03T15:13:52.978Z,33.80
2019-04-03T15:16:30.696Z,38.92
2019-04-03T15:19:06.377Z,33.08
2019-04-03T15:21:42.243Z,33.90
2019-04-03T15:24:18.096Z,106.37
2019-04-03T15:26:54.918Z,34.98
2019-04-03T15:29:31.035Z,45.38
2019-04-03T15:32:07.345Z,69.37
2019-04-03T15:34:43.243Z,83.80
2019-04-03T15:37:19.104Z,76.15
2019-04-03T15:39:58.251Z,64.82
2019-04-03T15:42:32.925Z,50.12
2019-04-03T15:45:10.374Z,64.07
2019-04-03T15:47:47.304Z,27.27
2019-04-03T15:50:24.155Z,25.17
2019-04-03T15:53:00.177Z,21.93
2019-04-03T15:55:37.927Z,31.00
2019-04-03T15:58:13.975Z,36.77
2019-04-03T16:00:49.754Z,26.93
2019-04-03T16:03:25.624Z,23.52
2019-04-03T16:06:03.947Z,21.25
2019-04-03T16:08:39.245Z,23.57
2019-04-03T16:11:15.034Z,23.02
2019-04-03T16:13:51.308Z,20.60
2019-04-03T16:16:28.398Z,22.07
2019-04-03T16:19:04.713Z,18.92
2019-04-03T16:21:40.526Z,21.07
2019-04-03T16:24:16.814Z,18.48
2019-04-03T16:26:53.182Z,23.47
2019-04-03T16:29:31.247Z,23.05
2019-04-03T16:32:07.249Z,22.75
2019-04-03T16:34:43.009Z,22.75
2019-04-03T16:37:21.479Z,53.75
2019-04-03T16:39:56.339Z,33.58
2019-04-03T16:42:32.238Z,38.20
2019-04-03T16:45:09.574Z,24.98
2019-04-03T16:47:45.845Z,27.13
2019-04-03T16:50:21.825Z,25.72
2019-04-03T16:52:58.024Z,27.60
2019-04-03T16:55:33.967Z,24.15
2019-04-03T16:58:10.143Z,24.50
2019-04-03T17:00:46.179Z,27.58
2019-04-03T17:03:22.013Z,25.75
2019-04-03T17:05:57.776Z,25.88
2019-04-03T17:08:33.902Z,29.72
2019-04-03T17:11:12.091Z,26.23
2019-04-03T17:13:47.210Z,25.80
2019-04-03T17:16:22.967Z,24.40
2019-04-03T17:18:58.809Z,27.75
2019-04-03T17:21:38.395Z,27.40
2019-04-03T17:24:12.171Z,27.40
2019-04-03T17:26:53.926Z,26.80
2019-04-03T17:29:25.572Z,24.07
2019-04-03T17:32:01.564Z,23.60
2019-04-03T17:34:41.762Z,24.35
2019-04-03T17:37:15.230Z,28.98
2019-04-03T17:39:52.448Z,29.52
2019-04-03T17:42:28.343Z,26.00
2019-04-03T17:45:05.181Z,30.02
2019-04-03T17:47:41.022Z,33.30
2019-04-03T17:50:16.908Z,33.55
2019-04-03T17:52:52.678Z,38.00
2019-04-03T17:55:28.543Z,32.17
2019-04-03T17:58:04.610Z,31.48
2019-04-03T18:00:40.374Z,36.80
2019-04-03T18:03:19.252Z,32.17
2019-04-03T18:05:56.553Z,34.53
2019-04-03T18:08:32.811Z,33.85
2019-04-03T18:11:08.678Z,33.38
2019-04-03T18:13:48.397Z,32.80
2019-04-03T18:16:23.017Z,29.98
2019-04-03T18:18:58.917Z,36.50
2019-04-03T18:21:34.771Z,35.98
2019-04-03T18:24:10.624Z,38.35
2019-04-03T18:26:46.467Z,37.95
2019-04-03T18:29:24.440Z,37.35
2019-04-03T18:32:00.429Z,38.55
2019-04-03T18:34:36.281Z,39.45
2019-04-03T18:37:12.147Z,41.70
2019-04-03T18:39:48.002Z,37.08
2019-04-03T18:42:23.854Z,37.95
2019-04-03T18:44:59.713Z,32.80
2019-04-03T18:47:41.636Z,34.33
2019-04-03T18:50:13.498Z,27.50
2019-04-03T18:52:49.417Z,39.95
2019-04-03T18:55:25.378Z,33.63
2019-04-03T18:58:01.232Z,33.15
2019-04-03T19:00:37.081Z,29.32
2019-04-03T19:03:12.939Z,26.85
2019-04-03T19:05:48.794Z,28.10
2019-04-03T19:08:24.638Z,25.60
2019-04-03T19:11:02.694Z,29.75
2019-04-03T19:13:38.087Z,27.13
2019-04-03T19:16:19.552Z,29.75
2019-04-03T19:18:51.421Z,31.02
2019-04-03T19:21:28.749Z,32.73
2019-04-03T19:24:05.905Z,31.97
2019-04-03T19:26:41.767Z,31.23
2019-04-03T19:29:17.613Z,32.20
2019-04-03T19:31:55.137Z,29.52
2019-04-03T19:34:30.971Z,33.15
2019-04-03T19:37:07.127Z,31.37
2019-04-03T19:39:43.284Z,35.48
2019-04-03T19:42:19.156Z,38.63
2019-04-03T19:44:55.102Z,41.33
2019-04-03T19:47:31.047Z,36.58
2019-04-03T19:50:08.858Z,39.08
2019-04-03T19:52:44.810Z,36.33
2019-04-03T19:55:23.176Z,35.23
2019-04-03T19:57:58.671Z,38.23
2019-04-03T20:00:34.948Z,38.25
2019-04-03T20:03:24.923Z,36.03
2019-04-03T20:06:00.775Z,42.25
2019-04-03T20:08:36.733Z,43.40
2019-04-03T20:11:12.579Z,43.55
2019-04-03T20:13:48.440Z,43.50
2019-04-03T20:16:25.085Z,44.67
2019-04-03T20:19:01.009Z,42.25
2019-04-03T20:21:36.941Z,40.55
2019-04-03T20:24:13.391Z,42.48
2019-04-03T20:26:50.773Z,42.38
2019-04-03T20:29:27.825Z,45.50
2019-04-03T20:32:05.047Z,41.95
2019-04-03T20:34:44.488Z,38.13
2019-04-03T20:37:20.343Z,42.43
2019-04-03T20:39:56.184Z,44.00
2019-04-03T20:42:32.057Z,48.25
2019-04-03T20:45:08.013Z,44.67
2019-04-03T20:47:43.859Z,42.62
2019-04-03T20:50:19.813Z,41.07
2019-04-03T20:52:57.112Z,42.30
2019-04-03T20:55:33.162Z,42.58
2019-04-03T20:58:09.010Z,42.15
2019-04-03T21:00:44.861Z,39.10
2019-04-03T21:03:20.719Z,45.03
2019-04-03T21:05:58.320Z,43.63
2019-04-03T21:08:34.277Z,47.03
2019-04-03T21:11:10.133Z,42.08
2019-04-03T21:13:46.387Z,45.98
2019-04-03T21:16:32.731Z,36.48
2019-04-03T21:18:59.729Z,44.08
2019-04-03T21:21:35.597Z,43.13
2019-04-03T21:24:11.394Z,44.30
2019-04-03T21:26:47.404Z,44.27
2019-04-03T21:29:23.362Z,44.25
2019-04-03T21:31:59.203Z,48.10
2019-04-03T21:34:35.080Z,58.30
2019-04-03T21:37:13.762Z,45.83
2019-04-03T21:39:48.506Z,49.53
2019-04-03T21:42:24.989Z,44.93
2019-04-03T21:45:05.014Z,50.28
2019-04-03T21:47:40.935Z,46.48
2019-04-03T21:50:19.244Z,57.07
2019-04-03T21:52:55.353Z,50.83
2019-04-03T21:55:31.528Z,47.05
2019-04-03T21:58:08.826Z,53.68
2019-04-03T22:00:52.250Z,52.30
2019-04-03T22:03:29.841Z,57.40
2019-04-03T22:06:05.681Z,55.78
2019-04-03T22:08:41.539Z,60.65
2019-04-03T22:11:18.531Z,55.88
2019-04-03T22:13:54.370Z,61.02
2019-04-03T22:16:30.236Z,61.05
2019-04-03T22:19:06.089Z,52.65
2019-04-03T22:21:41.937Z,56.08
2019-04-03T22:24:18.811Z,56.90
2019-04-03T22:26:55.177Z,50.25
2019-04-03T22:29:31.040Z,50.98
2019-04-03T22:32:06.890Z,54.15
2019-04-03T22:34:42.737Z,50.90
2019-04-03T22:37:18.594Z,53.87
2019-04-03T22:39:54.549Z,56.63
2019-04-03T22:42:30.401Z,53.17
2019-04-03T22:45:06.573Z,50.90
2019-04-03T22:47:42.429Z,54.08
2019-04-03T22:50:18.385Z,53.17
2019-04-03T22:52:54.228Z,52.80
2019-04-03T22:55:30.912Z,48.60
2019-04-03T22:58:06.759Z,53.35
2019-04-03T23:00:42.572Z,54.00
2019-04-03T23:03:18.369Z,55.92
2019-04-03T23:05:54.225Z,50.63
2019-04-03T23:08:30.082Z,52.67
2019-04-03T23:11:06.548Z,54.08
2019-04-03T23:13:42.507Z,48.70
2019-04-03T23:16:18.349Z,48.38
2019-04-03T23:18:54.200Z,53.33
2019-04-03T23:21:30.056Z,49.83
2019-04-03T23:24:05.908Z,51.92
2019-04-03T23:26:41.778Z,49.77
2019-04-03T23:29:17.629Z,49.63
2019-04-03T23:31:54.610Z,57.88
2019-04-03T23:34:30.453Z,54.27
2019-04-03T23:37:06.316Z,57.33
2019-04-03T23:39:42.274Z,58.70
2019-04-03T23:42:18.116Z,49.88
2019-04-03T23:44:53.964Z,45.90
2019-04-03T23:47:29.833Z,53.30
2019-04-03T23:50:08.854Z,53.13
2019-04-03T23:52:44.716Z,47.20
2019-04-03T23:55:20.558Z,51.75
2019-04-03T23:57:56.426Z,46.95
